Time;durP1;ratioP1;P1;durP2;ratioP2;P2;SDS_P1;SDS_P2;PMS_P1;PMS_P2;Temp;Humidity;BMP_temperature;BMP_pressure;BME280_temperature;BME280_humidity;BME280_pressure;Samples;Min_cycle;Max_cycle;Signal;HPM_P1;HPM_P2
2023/12/17 00:00:59;;;;;;;25.75;22.80;;;;;;;8.50;100.00;103793.41;5069801;28;20377;-36
2023/12/17 00:03:26;;;;;;;26.60;22.70;;;;;;;8.46;100.00;103786.59;5069794;28;20025;-36
2023/12/17 00:05:52;;;;;;;26.27;22.95;;;;;;;8.50;100.00;103788.00;5069469;28;20036;-36
2023/12/17 00:08:19;;;;;;;28.27;22.50;;;;;;;8.52;100.00;103790.56;5058707;28;20028;-36
2023/12/17 00:10:45;;;;;;;28.42;23.25;;;;;;;8.52;100.00;103779.75;5057007;28;20034;-36
2023/12/17 00:13:11;;;;;;;26.58;22.27;;;;;;;8.54;100.00;103779.59;5055924;28;20432;-36
2023/12/17 00:15:36;;;;;;;26.20;22.15;;;;;;;8.54;100.00;103776.91;5056281;28;20068;-36
2023/12/17 00:18:01;;;;;;;27.53;23.20;;;;;;;8.54;100.00;103776.91;5055752;28;20033;-36
2023/12/17 00:20:27;;;;;;;26.77;22.80;;;;;;;8.40;100.00;103748.59;5055832;28;20039;-36
2023/12/17 00:22:52;;;;;;;25.10;22.50;;;;;;;8.49;100.00;103763.84;5055941;28;20105;-36
2023/12/17 00:25:17;;;;;;;27.77;23.45;;;;;;;8.54;100.00;103766.13;5055921;28;20065;-37
2023/12/17 00:27:43;;;;;;;26.27;22.50;;;;;;;8.51;100.00;103751.94;5055879;28;20094;-37
2023/12/17 00:30:08;;;;;;;25.23;21.97;;;;;;;8.55;100.00;103770.53;5055853;28;20032;-36
2023/12/17 00:32:34;;;;;;;27.13;21.60;;;;;;;8.50;100.00;103752.09;5056123;28;20021;-36
2023/12/17 00:34:59;;;;;;;22.73;20.23;;;;;;;8.47;100.00;103746.97;5055682;28;20468;-36
2023/12/17 00:37:24;;;;;;;26.17;21.53;;;;;;;8.52;100.00;103763.56;5054799;28;20377;-36
2023/12/17 00:39:50;;;;;;;24.80;20.83;;;;;;;8.54;100.00;103766.13;5054412;28;20033;-36
2023/12/17 00:42:15;;;;;;;23.10;20.40;;;;;;;8.55;100.00;103773.25;5055617;28;20116;-37
2023/12/17 00:44:40;;;;;;;23.20;19.87;;;;;;;8.47;100.00;103755.94;5055581;28;20029;-36
2023/12/17 00:47:06;;;;;;;23.27;19.70;;;;;;;8.45;100.00;103755.22;5056354;28;20025;-36
2023/12/17 00:49:31;;;;;;;22.43;20.13;;;;;;;8.54;100.00;103756.22;5055171;28;20755;-36
2023/12/17 00:51:56;;;;;;;21.43;19.03;;;;;;;8.55;100.00;103751.66;5055175;28;20021;-36
2023/12/17 00:54:22;;;;;;;21.47;19.17;;;;;;;8.54;100.00;103740.03;5055051;28;20039;-37
2023/12/17 00:56:47;;;;;;;23.40;20.03;;;;;;;8.54;100.00;103745.41;5055752;28;20124;-36
2023/12/17 00:59:12;;;;;;;21.87;19.53;;;;;;;8.25;100.00;103686.16;5055627;28;20029;-36
2023/12/17 01:01:38;;;;;;;23.40;20.23;;;;;;;8.55;100.00;103735.47;5055255;28;20082;-36
2023/12/17 01:04:04;;;;;;;22.80;20.10;;;;;;;8.54;100.00;103741.84;5055134;28;20082;-36
2023/12/17 01:06:29;;;;;;;21.48;19.15;;;;;;;8.54;100.00;103725.66;5055954;28;20037;-36
2023/12/17 01:08:54;;;;;;;25.30;21.30;;;;;;;8.46;100.00;103713.78;5054819;28;20023;-36
2023/12/17 01:11:20;;;;;;;23.43;20.93;;;;;;;8.54;100.00;103723.84;5055663;28;20029;-37
2023/12/17 01:13:45;;;;;;;23.97;21.07;;;;;;;8.54;100.00;103722.97;5054980;28;20380;-36
2023/12/17 01:16:10;;;;;;;25.37;21.70;;;;;;;8.55;100.00;103727.38;5054485;28;20032;-37
2023/12/17 01:18:36;;;;;;;23.70;20.77;;;;;;;8.55;100.00;103736.31;5054963;28;20028;-36
2023/12/17 01:21:01;;;;;;;22.80;20.17;;;;;;;8.49;100.00;103734.19;5055011;28;20104;-37
2023/12/17 01:23:27;;;;;;;23.13;19.97;;;;;;;8.47;100.00;103734.34;5055144;28;20029;-36
2023/12/17 01:25:52;;;;;;;21.73;19.38;;;;;;;8.54;100.00;103750.81;5054823;28;20028;-37
2023/12/17 01:28:17;;;;;;;20.67;18.43;;;;;;;8.54;100.00;103749.94;5054678;28;20052;-36
2023/12/17 01:30:43;;;;;;;20.13;17.90;;;;;;;8.46;100.00;103743.44;5054426;28;20021;-36
2023/12/17 01:33:08;;;;;;;20.63;17.60;;;;;;;8.56;100.00;103761.44;5054585;28;20041;-36
2023/12/17 01:35:33;;;;;;;19.42;17.05;;;;;;;8.47;100.00;103744.28;5055059;28;20052;-37
2023/12/17 01:37:59;;;;;;;16.80;15.00;;;;;;;8.57;100.00;103755.91;5054616;28;20029;-36
2023/12/17 01:40:24;;;;;;;18.03;16.10;;;;;;;8.57;100.00;103749.66;5055400;28;20107;-36
2023/12/17 01:42:52;;;;;;;17.40;15.53;;;;;;;8.58;100.00;103756.75;5054833;28;20111;-36
2023/12/17 01:45:18;;;;;;;18.75;16.23;;;;;;;8.59;100.00;103763.81;5054343;28;20037;-37
2023/12/17 01:47:44;;;;;;;18.55;16.35;;;;;;;8.59;100.00;103763.81;5054983;28;20040;-37
2023/12/17 01:50:09;;;;;;;;;;;;;;;8.61;100.00;103751.91;5054748;28;20032;-36
2023/12/17 01:52:35;;;;;;;18.95;16.65;;;;;;;8.58;100.00;103759.44;5054525;28;19908;-36
2023/12/17 01:55:01;;;;;;;18.70;16.70;;;;;;;8.58;100.00;103762.13;5054042;28;20465;-36
2023/12/17 01:57:26;;;;;;;19.30;17.13;;;;;;;8.57;100.00;103761.28;5054790;28;20027;-36
2023/12/17 01:59:53;;;;;;;19.65;17.55;;;;;;;8.50;100.00;103750.25;5053876;28;20035;-36
2023/12/17 02:02:18;;;;;;;20.35;18.23;;;;;;;8.57;100.00;103768.53;5054377;28;20068;-36
2023/12/17 02:04:44;;;;;;;22.27;17.77;;;;;;;8.55;100.00;103765.16;5054408;28;20475;-36
2023/12/17 02:07:09;;;;;;;21.85;18.52;;;;;;;8.57;100.00;103765.84;5054351;28;20037;-37
2023/12/17 02:09:34;;;;;;;21.50;18.17;;;;;;;8.57;100.00;103763.13;5053721;28;20070;-36
2023/12/17 02:12:00;;;;;;;21.40;18.47;;;;;;;8.56;100.00;103769.53;5053993;28;20032;-36
2023/12/17 02:14:25;;;;;;;20.67;17.87;;;;;;;8.49;100.00;103753.06;5053927;28;20041;-37
2023/12/17 02:16:51;;;;;;;21.05;17.92;;;;;;;8.56;100.00;103764.16;5054376;28;20016;-36
2023/12/17 02:19:16;;;;;;;20.55;18.35;;;;;;;8.53;100.00;103762.56;5053750;28;20385;-36
2023/12/17 02:21:41;;;;;;;20.87;17.20;;;;;;;8.54;100.00;103760.72;5053525;28;20116;-36
2023/12/17 02:24:07;;;;;;;17.33;15.53;;;;;;;8.47;100.00;103744.28;5053896;28;20029;-36
2023/12/17 02:26:32;;;;;;;17.75;15.60;;;;;;;8.53;100.00;103749.09;5053370;28;20033;-36
2023/12/17 02:28:57;;;;;;;20.73;15.00;;;;;;;8.43;100.00;103732.09;5053639;28;20025;-36
2023/12/17 02:31:23;;;;;;;17.90;14.20;;;;;;;8.54;100.00;103755.34;5053689;28;20075;-37
2023/12/17 02:33:48;;;;;;;14.03;11.97;;;;;;;8.55;100.00;103751.66;5053815;28;20056;-37
2023/12/17 02:36:13;;;;;;;13.77;10.93;;;;;;;8.54;100.00;103758.03;5053286;28;20025;-36
2023/12/17 02:38:39;;;;;;;12.73;10.15;;;;;;;8.52;100.00;103760.88;5053476;28;20032;-37
2023/12/17 02:41:04;;;;;;;12.70;9.70;;;;;;;8.55;100.00;103765.16;5053873;28;20033;-37
2023/12/17 02:43:30;;;;;;;10.82;8.25;;;;;;;8.54;100.00;103761.59;5053785;28;20065;-36
2023/12/17 02:45:55;;;;;;;9.87;8.07;;;;;;;8.56;100.00;103758.75;5053402;28;20036;-37
2023/12/17 02:48:20;;;;;;;10.17;8.50;;;;;;;8.54;100.00;103758.91;5053012;28;20029;-36
2023/12/17 02:50:45;;;;;;;12.17;9.00;;;;;;;8.48;100.00;103746.81;5054140;28;20036;-37
2023/12/17 02:53:11;;;;;;;11.03;8.33;;;;;;;8.54;100.00;103750.81;5053028;28;20035;-36
2023/12/17 02:55:36;;;;;;;10.43;8.33;;;;;;;8.55;100.00;103755.22;5053982;28;20079;-36
2023/12/17 02:58:05;;;;;;;11.40;8.60;;;;;;;8.46;100.00;103735.34;5052984;28;20029;-36
2023/12/17 03:00:30;;;;;;;12.32;9.32;;;;;;;8.54;100.00;103750.81;5053227;28;20466;-36
2023/12/17 03:02:57;;;;;;;13.13;9.43;;;;;;;8.55;100.00;103752.50;5053335;28;20028;-36
2023/12/17 03:05:22;;;;;;;13.23;9.68;;;;;;;8.55;100.00;103746.28;5052945;28;20056;-36
2023/12/17 03:07:47;;;;;;;12.03;9.40;;;;;;;8.44;100.00;103729.28;5053537;28;20029;-36
2023/12/17 03:10:13;;;;;;;14.17;10.57;;;;;;;8.47;100.00;103730.81;5053211;28;20045;-36
2023/12/17 03:12:38;;;;;;;12.88;10.50;;;;;;;8.56;100.00;103743.41;5053793;28;20025;-36
2023/12/17 03:15:05;;;;;;;13.38;11.65;;;;;;;8.45;100.00;103725.56;5053061;28;20029;-36
2023/12/17 03:17:30;;;;;;;16.02;11.38;;;;;;;8.54;100.00;103733.75;5053408;28;20032;-36
2023/12/17 03:19:56;;;;;;;16.17;12.73;;;;;;;8.46;100.00;103724.56;5053159;28;20496;-37
2023/12/17 03:22:21;;;;;;;17.10;12.80;;;;;;;8.54;100.00;103722.97;5053677;28;20060;-36
2023/12/17 03:24:46;;;;;;;15.35;13.00;;;;;;;8.45;100.00;103713.94;5053305;28;20025;-36
2023/12/17 03:27:12;;;;;;;18.60;16.10;;;;;;;8.37;100.00;103698.47;5052863;28;20087;-36
2023/12/17 03:29:37;;;;;;;20.03;16.23;;;;;;;8.41;100.00;103712.53;5053349;28;20465;-36
2023/12/17 03:32:03;;;;;;;22.17;17.10;;;;;;;8.50;100.00;103725.13;5053040;28;20477;-36
2023/12/17 03:34:28;;;;;;;23.17;18.20;;;;;;;8.50;100.00;103727.81;5052934;28;20021;-36
2023/12/17 03:36:53;;;;;;;24.53;19.93;;;;;;;8.49;100.00;103729.69;5053704;28;20029;-36
2023/12/17 03:39:19;;;;;;;23.60;20.63;;;;;;;8.47;100.00;103720.88;5052919;28;20090;-37
2023/12/17 03:41:44;;;;;;;25.63;20.50;;;;;;;8.49;100.00;103716.19;5052954;28;20032;-37
2023/12/17 03:44:10;;;;;;;26.40;21.17;;;;;;;8.48;100.00;103719.00;5056434;28;20025;-36
2023/12/17 03:46:35;;;;;;;27.05;20.15;;;;;;;8.47;100.00;103720.00;5056679;28;20021;-36
2023/12/17 03:49:00;;;;;;;26.93;20.10;;;;;;;8.47;100.00;103722.72;5056988;28;20033;-37
2023/12/17 03:51:26;;;;;;;25.17;20.40;;;;;;;8.31;100.00;103685.56;5056976;28;20309;-36
2023/12/17 03:53:51;;;;;;;28.53;21.37;;;;;;;8.45;100.00;103704.00;5056293;28;20032;-36
2023/12/17 03:56:17;;;;;;;27.07;21.63;;;;;;;8.45;100.00;103709.38;5056782;28;20115;-36
2023/12/17 03:58:43;;;;;;;30.40;23.65;;;;;;;8.43;100.00;103705.97;5056469;28;20029;-37
2023/12/17 04:01:09;;;;;;;28.67;22.45;;;;;;;8.42;100.00;103698.88;5056114;28;20498;-36
2023/12/17 04:03:35;;;;;;;26.95;21.58;;;;;;;8.42;100.00;103688.09;5056385;28;20029;-36
2023/12/17 04:06:02;;;;;;;25.73;22.00;;;;;;;8.37;100.00;103689.53;5056638;28;20033;-36
2023/12/17 04:08:28;;;;;;;28.98;21.52;;;;;;;8.41;100.00;103694.50;5056266;28;20033;-36
2023/12/17 04:10:54;;;;;;;28.08;21.77;;;;;;;8.44;100.00;103691.50;5057086;28;20040;-36
2023/12/17 04:13:19;;;;;;;25.85;21.67;;;;;;;8.38;100.00;103675.91;5056135;28;20032;-36
2023/12/17 04:15:45;;;;;;;24.67;20.50;;;;;;;8.44;100.00;103691.50;5056607;28;20029;-36
2023/12/17 04:18:10;;;;;;;21.87;19.50;;;;;;;8.43;100.00;103695.19;5056066;28;20303;-36
2023/12/17 04:20:35;;;;;;;21.27;17.88;;;;;;;8.42;100.00;103688.09;5056836;28;20263;-36
2023/12/17 04:23:01;;;;;;;22.67;18.40;;;;;;;8.42;100.00;103696.19;5056035;28;20123;-36
2023/12/17 04:25:26;;;;;;;20.77;17.73;;;;;;;8.29;100.00;103670.50;5056273;28;20104;-36
2023/12/17 04:27:51;;;;;;;19.27;15.77;;;;;;;8.37;100.00;103679.59;5055873;28;20378;-36
2023/12/17 04:30:17;;;;;;;18.27;16.10;;;;;;;8.38;100.00;103670.50;5055877;28;20032;-36
2023/12/17 04:32:43;;;;;;;18.88;14.57;;;;;;;8.40;100.00;103678.47;5056616;28;20342;-37
2023/12/17 04:35:08;;;;;;;17.67;14.93;;;;;;;8.32;100.00;103671.06;5055636;28;20059;-36
2023/12/17 04:37:33;;;;;;;16.98;14.07;;;;;;;8.41;100.00;103672.91;5055983;28;20029;-36
2023/12/17 04:39:59;;;;;;;16.00;13.97;;;;;;;8.40;100.00;103678.47;5055989;28;20052;-37
2023/12/17 04:42:24;;;;;;;17.53;14.43;;;;;;;8.37;100.00;103676.06;5056488;28;20020;-36
2023/12/17 04:44:50;;;;;;;15.17;13.57;;;;;;;8.39;100.00;103669.50;5055658;28;20072;-36
2023/12/17 04:47:15;;;;;;;16.67;13.43;;;;;;;8.38;100.00;103678.59;5055362;28;20111;-37
2023/12/17 04:49:40;;;;;;;15.03;12.37;;;;;;;8.37;100.00;103676.91;5056114;28;20059;-37
2023/12/17 04:52:06;;;;;;;14.43;12.60;;;;;;;8.36;100.00;103679.72;5056039;28;20025;-36
2023/12/17 04:54:31;;;;;;;13.83;12.40;;;;;;;8.37;100.00;103681.44;5055228;28;20033;-36
2023/12/17 04:56:57;;;;;;;17.37;14.03;;;;;;;8.27;100.00;103662.56;5055626;28;20292;-36
2023/12/17 04:59:23;;;;;;;16.67;12.68;;;;;;;8.36;100.00;103672.50;5055322;28;20033;-36
2023/12/17 05:01:48;;;;;;;14.73;12.13;;;;;;;8.34;100.00;103671.75;5055260;28;20033;-36
2023/12/17 05:04:16;;;;;;;17.57;13.30;;;;;;;8.16;100.00;103651.97;5055257;28;20025;-37
2023/12/17 05:06:41;;;;;;;18.08;14.07;;;;;;;8.31;100.00;103669.38;5055986;28;20033;-36
2023/12/17 05:09:07;;;;;;;18.15;14.77;;;;;;;8.31;100.00;103665.84;5055461;28;20036;-36
2023/12/17 05:11:33;;;;;;;19.67;14.90;;;;;;;8.31;100.00;103672.06;5054814;28;20400;-36
2023/12/17 05:13:58;;;;;;;17.98;14.57;;;;;;;8.31;100.00;103672.06;5055358;28;20028;-36
2023/12/17 05:16:24;;;;;;;17.50;13.97;;;;;;;8.31;100.00;103677.47;5055240;28;20454;-37
2023/12/17 05:18:49;;;;;;;17.93;14.53;;;;;;;8.30;100.00;103683.00;5055047;28;20454;-36
2023/12/17 05:21:14;;;;;;;18.47;14.50;;;;;;;8.29;100.00;103686.69;5055535;28;20033;-37
2023/12/17 05:23:39;;;;;;;20.07;15.13;;;;;;;8.28;100.00;103683.13;5055423;28;20123;-36
2023/12/17 05:26:05;;;;;;;20.23;14.47;;;;;;;8.26;100.00;103677.06;5055462;28;20437;-36
2023/12/17 05:28:30;;;;;;;20.08;15.90;;;;;;;8.16;100.00;103669.00;5054442;28;20033;-36
2023/12/17 05:30:55;;;;;;;19.87;14.90;;;;;;;8.19;100.00;103676.78;5055111;28;20025;-36
2023/12/17 05:33:21;;;;;;;20.53;15.93;;;;;;;8.22;100.00;103675.66;5054772;28;20031;-36
2023/12/17 05:35:46;;;;;;;20.33;15.20;;;;;;;8.21;100.00;103676.66;5054945;28;20029;-36
2023/12/17 05:38:11;;;;;;;18.90;14.63;;;;;;;8.18;100.00;103664.28;5054272;28;20040;-36
2023/12/17 05:40:37;;;;;;;16.53;14.00;;;;;;;8.18;100.00;103666.16;5054345;28;20033;-36
2023/12/17 05:43:03;;;;;;;17.20;14.17;;;;;;;8.16;100.00;103669.00;5054537;28;20025;-37
2023/12/17 05:45:30;;;;;;;20.05;14.13;;;;;;;8.18;100.00;103669.69;5054189;28;20283;-36
2023/12/17 05:47:56;;;;;;;20.45;15.63;;;;;;;8.10;100.00;103655.25;5054066;28;20456;-36
2023/12/17 05:50:22;;;;;;;20.35;15.02;;;;;;;8.16;100.00;103670.84;5054647;28;20067;-36
2023/12/17 05:52:48;;;;;;;22.45;15.80;;;;;;;8.15;100.00;103666.44;5055160;28;20029;-36
2023/12/17 05:55:13;;;;;;;19.10;16.30;;;;;;;8.12;100.00;103655.97;5054579;28;20515;-36
2023/12/17 05:57:38;;;;;;;20.23;16.00;;;;;;;8.14;100.00;103670.13;5054821;28;20029;-36
2023/12/17 06:00:04;;;;;;;22.70;16.23;;;;;;;8.12;100.00;103659.50;5054182;28;20035;-37
2023/12/17 06:02:30;;;;;;;20.25;16.67;;;;;;;8.09;100.00;103659.78;5054482;28;20412;-36
2023/12/17 06:04:55;;;;;;;21.80;16.50;;;;;;;8.12;100.00;103664.03;5054087;28;20067;-36
2023/12/17 06:07:21;;;;;;;21.35;16.38;;;;;;;8.10;100.00;103661.50;5053773;28;20267;-36
2023/12/17 06:09:46;;;;;;;24.17;17.33;;;;;;;8.03;100.00;103649.59;5053712;28;20040;-36
2023/12/17 06:12:11;;;;;;;20.90;16.80;;;;;;;8.10;100.00;103660.63;5054019;28;20037;-36
2023/12/17 06:14:37;;;;;;;18.50;15.27;;;;;;;8.10;100.00;103660.63;5053857;28;20143;-36
2023/12/17 06:17:02;;;;;;;19.93;15.57;;;;;;;8.10;100.00;103672.28;5053912;28;20060;-36
2023/12/17 06:19:27;;;;;;;20.92;15.68;;;;;;;8.05;100.00;103662.91;5053564;28;20036;-36
2023/12/17 06:21:53;;;;;;;19.40;14.23;;;;;;;8.03;100.00;103654.13;5054439;28;20060;-37
2023/12/17 06:24:18;;;;;;;17.77;14.47;;;;;;;8.10;100.00;103666.91;5053522;28;20025;-36
2023/12/17 06:26:43;;;;;;;17.00;14.07;;;;;;;8.02;100.00;103663.22;5054065;28;20029;-37
2023/12/17 06:29:13;;;;;;;15.80;13.33;;;;;;;8.02;100.00;103655.13;5053377;28;20163;-36
2023/12/17 06:31:39;;;;;;;16.75;12.93;;;;;;;8.07;100.00;103671.72;5053932;28;20385;-36
2023/12/17 06:34:05;;;;;;;15.75;13.38;;;;;;;8.05;100.00;103671.00;5053334;28;20054;-36
2023/12/17 06:36:30;;;;;;;15.83;13.53;;;;;;;8.05;100.00;103671.00;5053301;28;20112;-36
2023/12/17 06:38:55;;;;;;;17.63;13.10;;;;;;;8.06;100.00;103678.97;5053252;28;20028;-36
2023/12/17 06:41:21;;;;;;;14.97;13.13;;;;;;;8.01;100.00;103673.16;5053534;28;20033;-36
2023/12/17 06:43:46;;;;;;;18.13;14.43;;;;;;;7.99;100.00;103670.59;5053464;28;20512;-36
2023/12/17 06:46:18;;;;;;;19.87;13.97;;;;;;;7.97;100.00;103667.19;5053848;28;20795;-36
2023/12/17 06:48:43;;;;;;;17.13;14.15;;;;;;;7.96;100.00;103665.50;5053118;28;20100;-36
2023/12/17 06:51:12;;;;;;;20.23;14.38;;;;;;;7.95;100.00;103661.13;5053462;28;20103;-36
2023/12/17 06:53:37;;;;;;;18.02;14.77;;;;;;;7.94;100.00;103666.63;5053326;28;20036;-36
2023/12/17 06:56:03;;;;;;;18.90;13.88;;;;;;;7.91;100.00;103661.53;5052320;28;20393;-36
2023/12/17 06:58:28;;;;;;;17.88;13.48;;;;;;;7.88;100.00;103657.28;5053218;28;20049;-36
2023/12/17 07:00:54;;;;;;;14.95;12.63;;;;;;;7.83;100.00;103659.56;5053581;28;20029;-36
2023/12/17 07:03:19;;;;;;;15.27;12.40;;;;;;;7.91;100.00;103659.69;5053329;28;20121;-37
2023/12/17 07:05:45;;;;;;;16.43;11.77;;;;;;;7.83;100.00;103651.47;5053628;28;20473;-36
2023/12/17 07:08:10;;;;;;;12.27;10.95;;;;;;;7.89;100.00;103664.38;5053190;28;20274;-36
2023/12/17 07:10:36;;;;;;;13.23;11.45;;;;;;;7.85;100.00;103662.09;5053221;28;20354;-36
2023/12/17 07:13:01;;;;;;;12.57;11.27;;;;;;;7.85;100.00;103660.25;5051914;28;20055;-36
2023/12/17 07:15:27;;;;;;;11.90;10.70;;;;;;;7.85;100.00;103662.94;5053676;28;20256;-36
2023/12/17 07:17:52;;;;;;;11.63;10.52;;;;;;;7.85;100.00;103668.34;5054605;28;20117;-37
2023/12/17 07:20:18;;;;;;;10.53;9.53;;;;;;;7.85;100.00;103671.03;5057721;28;20115;-36
2023/12/17 07:22:43;;;;;;;11.10;9.90;;;;;;;7.82;100.00;103674.03;5056867;28;20033;-36
2023/12/17 07:25:09;;;;;;;11.43;10.30;;;;;;;7.78;100.00;103672.63;5057036;28;20036;-36
2023/12/17 07:27:34;;;;;;;10.40;9.15;;;;;;;7.80;100.00;103676.00;5057540;28;20321;-36
2023/12/17 07:30:00;;;;;;;11.23;10.13;;;;;;;7.88;100.00;103692.31;5057378;28;20483;-36
2023/12/17 07:32:25;;;;;;;11.70;10.50;;;;;;;7.86;100.00;103688.91;5056631;28;20033;-37
2023/12/17 07:34:50;;;;;;;10.97;9.87;;;;;;;7.79;100.00;103679.69;5056879;28;20280;-36
2023/12/17 07:37:16;;;;;;;10.63;9.53;;;;;;;7.88;100.00;103684.22;5057129;28;20037;-36
2023/12/17 07:39:42;;;;;;;11.48;10.27;;;;;;;7.87;100.00;103684.38;5056524;28;20040;-36
2023/12/17 07:42:07;;;;;;;10.73;9.57;;;;;;;7.85;100.00;103689.88;5057099;28;20033;-36
2023/12/17 07:44:32;;;;;;;10.73;9.63;;;;;;;7.82;100.00;103684.81;5056415;28;20035;-36
2023/12/17 07:46:58;;;;;;;10.40;9.37;;;;;;;7.81;100.00;103690.31;5057556;28;20110;-36
2023/12/17 07:49:24;;;;;;;11.13;9.57;;;;;;;7.81;100.00;103693.00;5057213;28;20623;-36
2023/12/17 07:51:49;;;;;;;11.95;10.75;;;;;;;7.73;100.00;103685.66;5056838;28;20354;-36
2023/12/17 07:54:15;;;;;;;11.98;10.75;;;;;;;7.78;100.00;103696.00;5056765;28;20115;-36
2023/12/17 07:56:40;;;;;;;11.55;9.80;;;;;;;7.75;100.00;103689.06;5057470;28;20472;-36
2023/12/17 07:59:06;;;;;;;13.10;10.70;;;;;;;7.77;100.00;103695.16;5056986;28;20025;-36
2023/12/17 08:01:32;;;;;;;12.27;10.63;;;;;;;7.78;100.00;103696.84;5056485;28;20029;-36
2023/12/17 08:03:58;;;;;;;11.68;10.48;;;;;;;7.78;100.00;103694.16;5056305;28;20020;-37
2023/12/17 08:06:24;;;;;;;11.10;9.60;;;;;;;7.79;100.00;103698.56;5056684;28;20036;-36
2023/12/17 08:08:50;;;;;;;10.90;9.73;;;;;;;7.71;100.00;103682.25;5056029;28;20079;-36
2023/12/17 08:11:16;;;;;;;11.85;9.80;;;;;;;7.76;100.00;103693.47;5056548;28;20091;-37
2023/12/17 08:13:41;;;;;;;13.52;10.80;;;;;;;7.77;100.00;103691.63;5056738;28;20025;-36
2023/12/17 08:16:08;;;;;;;12.38;10.10;;;;;;;7.79;100.00;103690.47;5056371;28;20033;-36
2023/12/17 08:18:33;;;;;;;11.18;9.20;;;;;;;7.77;100.00;103687.09;5055797;28;20025;-36
2023/12/17 08:20:59;;;;;;;10.67;9.60;;;;;;;7.78;100.00;103698.72;5056932;28;20090;-36
2023/12/17 08:23:25;;;;;;;10.47;9.37;;;;;;;7.75;100.00;103691.75;5056092;28;20377;-36
2023/12/17 08:25:51;;;;;;;12.27;9.90;;;;;;;7.75;100.00;103697.13;5056223;28;20094;-36
2023/12/17 08:28:19;;;;;;;10.15;9.05;;;;;;;7.73;100.00;103691.91;5055425;28;20029;-36
2023/12/17 08:30:44;;;;;;;9.60;8.57;;;;;;;7.69;100.00;103693.16;5055625;28;20040;-36
2023/12/17 08:33:10;;;;;;;11.18;9.68;;;;;;;7.66;100.00;103692.59;5055804;28;20029;-37
2023/12/17 08:35:37;;;;;;;9.20;8.13;;;;;;;7.71;100.00;103710.06;5056235;28;20082;-37
2023/12/17 08:38:05;;;;;;;9.82;8.82;;;;;;;7.68;100.00;103696.88;5055622;28;20268;-36
2023/12/17 08:40:37;;;;;;;9.63;8.55;;;;;;;7.67;100.00;103703.25;5056210;28;20032;-36
2023/12/17 08:43:06;;;;;;;9.82;8.80;;;;;;;7.66;100.00;103706.94;5055348;28;20028;-36
2023/12/17 08:45:32;;;;;;;9.85;8.85;;;;;;;7.66;100.00;103706.94;5055606;28;20033;-36
2023/12/17 08:47:58;;;;;;;;;;;;;;;7.68;100.00;103701.41;5056561;28;20028;-36
2023/12/17 08:50:24;;;;;;;9.82;8.73;;;;;;;7.59;100.00;103704.94;5056257;28;19909;-36
2023/12/17 08:52:49;;;;;;;8.80;7.67;;;;;;;7.44;100.00;103691.06;5055809;28;20477;-36
2023/12/17 08:55:15;;;;;;;8.17;7.37;;;;;;;7.38;100.00;103681.69;5055144;28;20635;-36
2023/12/17 08:57:40;;;;;;;7.53;6.82;;;;;;;7.52;100.00;103712.75;5055792;28;20291;-36
2023/12/17 09:00:06;;;;;;;7.37;6.67;;;;;;;7.48;100.00;103704.09;5055277;28;20370;-36
2023/12/17 09:02:33;;;;;;;;;;;;;;;7.52;100.00;103709.22;5055935;28;20306;-36
2023/12/17 09:04:59;;;;;;;8.07;7.28;;;;;;;7.37;100.00;103693.47;5055195;28;19944;-36
2023/12/17 09:07:24;;;;;;;7.83;6.50;;;;;;;7.34;100.00;103688.34;5055463;28;20067;-36
2023/12/17 09:09:50;;;;;;;8.20;7.43;;;;;;;7.42;100.00;103701.97;5054881;28;20032;-36
2023/12/17 09:12:16;;;;;;;8.27;7.47;;;;;;;7.43;100.00;103702.81;5055615;28;20099;-36
2023/12/17 09:14:41;;;;;;;7.78;6.97;;;;;;;7.43;100.00;103697.44;5055058;28;20033;-36
2023/12/17 09:17:07;;;;;;;8.90;7.53;;;;;;;7.44;100.00;103691.91;5055230;28;20033;-36
2023/12/17 09:19:32;;;;;;;10.50;9.40;;;;;;;7.42;100.00;103698.44;5055274;28;20021;-36
2023/12/17 09:21:58;;;;;;;10.63;9.50;;;;;;;7.36;100.00;103693.59;5055228;28;20036;-36
2023/12/17 09:24:23;;;;;;;10.27;9.27;;;;;;;7.13;100.00;103666.09;5054847;28;20033;-36
2023/12/17 09:26:48;;;;;;;9.73;8.73;;;;;;;7.32;100.00;103706.50;5055365;28;20035;-36
2023/12/17 09:29:14;;;;;;;9.70;8.77;;;;;;;7.29;100.00;103717.53;5054799;28;20028;-36
2023/12/17 09:31:39;;;;;;;11.07;9.27;;;;;;;7.29;100.00;103714.84;5055124;28;20036;-36
2023/12/17 09:34:06;;;;;;;10.60;9.50;;;;;;;7.20;100.00;103699.53;5054412;28;20112;-36
2023/12/17 09:36:31;;;;;;;;;;;;;;;7.28;100.00;103707.75;5055055;28;20055;-36
2023/12/17 09:38:56;;;;;;;9.55;8.55;;;;;;;7.26;100.00;103709.72;5054542;28;19913;-36
2023/12/17 09:41:23;;;;;;;11.60;9.87;;;;;;;7.23;100.00;103707.31;5054311;28;20393;-36
2023/12/17 09:43:49;;;;;;;11.43;10.02;;;;;;;7.10;100.00;103695.97;5054422;28;20279;-36
2023/12/17 09:46:14;;;;;;;10.98;9.88;;;;;;;7.18;100.00;103712.28;5054726;28;20025;-36
2023/12/17 09:48:40;;;;;;;10.60;9.30;;;;;;;7.13;100.00;103707.31;5054954;28;20025;-36
2023/12/17 09:51:06;;;;;;;11.45;9.77;;;;;;;7.23;100.00;103721.63;5054923;28;20057;-36
2023/12/17 09:53:33;;;;;;;10.88;9.77;;;;;;;7.23;100.00;103726.16;5054256;28;20079;-36
2023/12/17 09:55:58;;;;;;;11.38;10.13;;;;;;;7.23;100.00;103716.25;5054009;28;20044;-36
2023/12/17 09:58:27;;;;;;;12.60;9.53;;;;;;;7.27;100.00;103730.28;5053990;28;20408;-36
2023/12/17 10:00:53;;;;;;;14.32;12.57;;;;;;;7.17;100.00;103715.94;5054118;28;20106;-36
2023/12/17 10:03:19;;;;;;;15.27;12.48;;;;;;;7.01;100.00;103689.56;5054031;28;20029;-36
2023/12/17 10:05:51;;;;;;;;;;;;;;;7.21;100.00;103715.53;5054684;28;20029;-36
2023/12/17 10:08:16;;;;;;;13.35;11.55;;;;;;;7.10;100.00;103704.88;5054140;28;19944;-36
2023/12/17 10:10:42;;;;;;;15.95;13.00;;;;;;;7.18;100.00;103714.97;5054715;28;20201;-36
2023/12/17 10:13:08;;;;;;;16.30;13.37;;;;;;;7.16;100.00;103712.41;5053889;28;20037;-36
2023/12/17 10:15:35;;;;;;;15.30;12.77;;;;;;;7.11;100.00;103719.19;5053437;28;20071;-36
2023/12/17 10:18:01;;;;;;;15.15;13.30;;;;;;;7.09;100.00;103723.88;5053664;28;20024;-36
2023/12/17 10:20:26;;;;;;;16.33;14.10;;;;;;;7.05;100.00;103725.13;5054383;28;20123;-36
2023/12/17 10:22:59;;;;;;;15.75;13.50;;;;;;;7.02;100.00;103730.78;5054294;28;20032;-36
2023/12/17 10:25:25;;;;;;;15.60;13.68;;;;;;;6.94;100.00;103715.34;5053438;28;20052;-36
2023/12/17 10:28:11;;;;;;;17.70;14.43;;;;;;;7.02;100.00;103733.47;5053934;28;20071;-36
2023/12/17 10:30:37;;;;;;;17.52;13.38;;;;;;;6.99;100.00;103733.75;5053568;28;20025;-36
2023/12/17 10:33:03;;;;;;;;;;;;;;;7.05;100.00;103725.13;5054817;28;20104;-36
2023/12/17 10:35:31;;;;;;;17.67;14.00;;;;;;;6.92;100.00;103707.38;5053158;28;20325;-36
2023/12/17 10:38:00;;;;;;;17.48;14.80;;;;;;;6.96;100.00;103724.09;5053439;28;20127;-36
2023/12/17 10:40:26;;;;;;;18.05;15.00;;;;;;;7.02;100.00;103707.41;5053402;28;20035;-36
2023/12/17 10:42:55;;;;;;;;;;;;;;;7.06;100.00;103707.97;5053945;28;20040;-36
2023/12/17 10:45:21;;;;;;;19.63;14.35;;;;;;;7.00;100.00;103714.78;5053081;28;19913;-36
2023/12/17 10:47:59;;;;;;;;;;;;;;;7.07;100.00;103702.47;5054158;28;20039;-36
2023/12/17 10:50:26;;;;;;;19.02;15.70;;;;;;;7.04;100.00;103700.06;5054166;28;19909;-36
2023/12/17 10:52:51;;;;;;;21.48;15.75;;;;;;;7.00;100.00;103693.25;5053071;28;20041;-36
2023/12/17 10:55:18;;;;;;;22.98;16.20;;;;;;;7.02;100.00;103685.03;5053812;28;20343;-36
2023/12/17 10:57:58;;;;;;;19.13;15.15;;;;;;;7.11;100.00;103697.66;5053880;28;20025;-36
2023/12/17 11:00:27;;;;;;;19.45;15.52;;;;;;;7.15;100.00;103702.63;5053272;28;20467;-36
2023/12/17 11:02:55;;;;;;;19.50;15.18;;;;;;;7.19;100.00;103692.44;5053217;28;20055;-36
2023/12/17 11:05:21;;;;;;;18.20;14.63;;;;;;;7.20;100.00;103678.00;5053035;28;20074;-36
2023/12/17 11:07:46;;;;;;;17.70;13.53;;;;;;;7.23;100.00;103669.66;5053279;28;20112;-36